Terminal Aerodrome Forecast
Issued by NWS Blacksburg, VA

Home | Current Version | Previous Version | Text Only | Print | Product List | Glossary On
Versions: 1 2 3 4 5 6 7 8 9 10 11 12 13 14 15 16 17 18 19 20 21 22 23 24 25 26
000
FTUS41 KRNK 010049 AAA
TAFLYH
TAF AMD
KLYH 010049Z 0101/0124 00000KT P6SM -TSRA BKN024CB BKN050
     FM010130 00000KT 5SM BR VCSH BKN040
     FM010700 00000KT 4SM -RA BR SCT025 OVC040
     FM011700 07007KT 6SM -RA BR OVC025=

USA.gov is the U.S. government's official web portal to all federal, state and local government web resources and services.